Home > Products > Valid Products > TAF

000
FTUS46 KMTR 281700 AAA
TAFSFO
TAF AMD
KSFO 281753Z 2818/0124 29014KT P6SM VCSH FEW015 SCT024
      TEMPO 2818/2822 SHRA BKN025
     FM282200 29010G15KT P6SM VCSH SCT030 BKN040
      TEMPO 2822/0102 SHRA BKN025
     FM010400 33005KT P6SM SCT030 BKN050
     FM011000 03004KT P6SM SCT040 BKN050
     FM011400 07004KT P6SM FEW050 FEW200=



000
FTUS46 KMTR 281700 AAA
TAFSFO
TAF AMD
KSFO 281753Z 2818/0124 29014KT P6SM VCSH FEW015 SCT024
      TEMPO 2818/2822 SHRA BKN025
     FM282200 29010G15KT P6SM VCSH SCT030 BKN040
      TEMPO 2822/0102 SHRA BKN025
     FM010400 33005KT P6SM SCT030 BKN050
     FM011000 03004KT P6SM SCT040 BKN050
     FM011400 07004KT P6SM FEW050 FEW200=



000
FTUS46 KMTR 281700 AAA
TAFMRY
TAF AMD
KMRY 281752Z 2818/0118 VRB05KT 5SM -SHRA FEW017 BKN030 BKN035
      TEMPO 2818/2822 4SM +SHRA BR BKN025
     FM282200 26009KT P6SM -SHRA FEW020 BKN025 BKN035
      TEMPO 2822/0102 +SHRA BKN025
     FM010200 VRB05KT P6SM VCSH BKN025 BKN050
     FM010700 09004KT P6SM FEW025=



000
FTUS46 KMTR 281700 AAA
TAFMRY
TAF AMD
KMRY 281752Z 2818/0118 VRB05KT 5SM -SHRA FEW017 BKN030 BKN035
      TEMPO 2818/2822 4SM +SHRA BR BKN025
     FM282200 26009KT P6SM -SHRA FEW020 BKN025 BKN035
      TEMPO 2822/0102 +SHRA BKN025
     FM010200 VRB05KT P6SM VCSH BKN025 BKN050
     FM010700 09004KT P6SM FEW025=



000
FTUS46 KMTR 281700
TAFSFO
TAF
KSFO 281740Z 2818/0124 28010KT P6SM VCSH FEW015 BKN024
      TEMPO 2818/2822 SHRA BKN025
     FM282200 29010G15KT P6SM VCSH SCT030 BKN040
      TEMPO 2822/0102 SHRA BKN025
     FM010400 33005KT P6SM SCT030 BKN050
     FM011000 03004KT P6SM SCT040 BKN050
     FM011400 07004KT P6SM FEW050 FEW200=



000
FTUS46 KMTR 281700
TAFSNS
TAF
KSNS 281740Z 2818/0118 VRB05KT P6SM -SHRA SCT018 BKN045 OVC060
      TEMPO 2818/2822 +SHRA BKN025
     FM282200 27010KT P6SM -SHRA SCT020 BKN045 OVC060
      TEMPO 2822/0102 +SHRA BKN025
     FM010200 29005KT P6SM VCSH SCT025 BKN050
     FM010400 11003KT P6SM BKN025=



000
FTUS46 KMTR 281700
TAFLVK
TAF
KLVK 281740Z 2818/0118 27006KT P6SM VCSH SCT030 BKN040
      TEMPO 2818/2822 SHRA BKN025
     FM282200 35008KT P6SM VCSH SCT030 BKN040
      TEMPO 2822/0102 SHRA BKN025
     FM010500 VRB03KT P6SM FEW040
     FM011000 00000KT P6SM SKC=



000
FTUS46 KMTR 281700
TAFSTS
TAF
KSTS 281740Z 2818/0118 00000KT P6SM SCT080
     FM282000 VRB03KT P6SM VCSH SCT030 BKN040
     FM010600 VRB03KT P6SM FEW030
     FM010800 00000KT P6SM SKC=



000
FTUS46 KMTR 281700
TAFMRY
TAF
KMRY 281740Z 2818/0118 VRB05KT P6SM -SHRA FEW017 BKN025 BKN035
      TEMPO 2818/2822 +SHRA BKN025
     FM282200 26009KT P6SM -SHRA FEW020 BKN025 BKN035
      TEMPO 2822/0102 +SHRA BKN025
     FM010200 VRB05KT P6SM VCSH BKN025 BKN050
     FM010700 09004KT P6SM FEW025=



000
FTUS46 KMTR 281700
TAFSJC
TAF
KSJC 281740Z 2818/0118 VRB03KT P6SM VCSH SCT026 SCT045
      TEMPO 2818/2822 -SHRA BKN025
     FM282200 31008KT P6SM VCSH BKN050
      TEMPO 2822/0102 SHRA BKN025
     FM010700 15003KT P6SM SCT025 BKN050=



000
FTUS46 KMTR 281700
TAFOAK
TAF
KOAK 281740Z 2818/0124 29006KT P6SM VCSH SCT022
      TEMPO 2818/2822 BKN025
     FM282200 29009KT P6SM VCSH SCT025 BKN040
      TEMPO 2822/0102 SHRA BKN025
     FM010400 02005KT P6SM SCT030 BKN050
     FM011000 06003KT P6SM FEW050 FEW200=



000
FTUS46 KMTR 281400 AAA
TAFSJC
TAF AMD
KSJC 281449Z 2815/0112 27005KT P6SM VCSH BKN030 OVC040
      TEMPO 2815/2819 -SHRA BKN025
     FM281900 32007KT P6SM VCSH BKN050
      TEMPO 2819/2823 SHRA BKN025
     FM010500 19003KT P6SM SCT040 BKN050=



000
FTUS46 KMTR 281400 AAA
TAFSJC
TAF AMD
KSJC 281449Z 2815/0112 27005KT P6SM VCSH BKN030 OVC040
      TEMPO 2815/2819 -SHRA BKN025
     FM281900 32007KT P6SM VCSH BKN050
      TEMPO 2819/2823 SHRA BKN025
     FM010500 19003KT P6SM SCT040 BKN050=



000
FTUS46 KMTR 281400 AAA
TAFSFO
TAF AMD
KSFO 281448Z 2815/0118 28008KT P6SM VCSH SCT025 BKN040
      TEMPO 2815/2819 BKN025
     FM281900 29010G15KT P6SM VCSH SCT030 BKN040
      TEMPO 2819/2823 SHRA BKN025
     FM010600 04004KT P6SM SCT040 BKN050=



000
FTUS46 KMTR 281400 AAA
TAFSFO
TAF AMD
KSFO 281448Z 2815/0118 28008KT P6SM VCSH SCT025 BKN040
      TEMPO 2815/2819 BKN025
     FM281900 29010G15KT P6SM VCSH SCT030 BKN040
      TEMPO 2819/2823 SHRA BKN025
     FM010600 04004KT P6SM SCT040 BKN050=



000
FTUS46 KMTR 281300 AAA
TAFSNS
TAF AMD
KSNS 281315Z 2813/0112 21005KT P6SM -SHRA BKN035 OVC050
      TEMPO 2813/2817 +SHRA BKN025
     FM281900 25006KT P6SM -SHRA SCT025 BKN040
      TEMPO 2819/2822 +SHRA BKN025
     FM282200 27010KT P6SM -SHRA SCT025 BKN040
     FM010200 27005KT P6SM VCSH SCT025 BKN050
     FM010400 VRB03KT P6SM BKN025=



000
FTUS46 KMTR 281300 AAA
TAFSNS
TAF AMD
KSNS 281315Z 2813/0112 21005KT P6SM -SHRA BKN035 OVC050
      TEMPO 2813/2817 +SHRA BKN025
     FM281900 25006KT P6SM -SHRA SCT025 BKN040
      TEMPO 2819/2822 +SHRA BKN025
     FM282200 27010KT P6SM -SHRA SCT025 BKN040
     FM010200 27005KT P6SM VCSH SCT025 BKN050
     FM010400 VRB03KT P6SM BKN025=



000
FTUS46 KMTR 281300 AAA
TAFMRY
TAF AMD
KMRY 281314Z 2813/0112 18005KT P6SM -SHRA FEW020 BKN035
      TEMPO 2813/2817 +SHRA BKN025
     FM281700 25008KT P6SM -SHRA SCT025 BKN050
      TEMPO 2817/2821 +SHRA BKN025
     FM010200 24005KT P6SM VCSH SCT025 BKN050
     FM010400 17004KT P6SM BKN025=



000
FTUS46 KMTR 281300 AAA
TAFMRY
TAF AMD
KMRY 281314Z 2813/0112 18005KT P6SM -SHRA FEW020 BKN035
      TEMPO 2813/2817 +SHRA BKN025
     FM281700 25008KT P6SM -SHRA SCT025 BKN050
      TEMPO 2817/2821 +SHRA BKN025
     FM010200 24005KT P6SM VCSH SCT025 BKN050
     FM010400 17004KT P6SM BKN025=



000
FTUS46 KMTR 281100
TAFSFO
TAF
KSFO 281139Z 2812/0118 28012KT P6SM VCSH SCT025 BKN040
      TEMPO 2812/2816 BKN025
     FM282000 29010G15KT P6SM VCSH SCT030 BKN040
      TEMPO 2820/2824 SHRA BKN025
     FM010600 04004KT P6SM SCT040 BKN050=



000
FTUS46 KMTR 281100
TAFOAK
TAF
KOAK 281139Z 2812/0118 29012KT P6SM VCSH SCT020 BKN040
     FM281900 29008KT P6SM VCSH SCT025 BKN040
      TEMPO 2819/2823 SHRA BKN025
     FM010500 02005KT P6SM SCT040 BKN050=



000
FTUS46 KMTR 281100
TAFMRY
TAF
KMRY 281139Z 2812/0112 18005KT P6SM -SHRA FEW020 BKN035
     FM281700 25008KT P6SM -SHRA SCT025 BKN050
      TEMPO 2817/2821 SHRA BKN025
     FM010200 24005KT P6SM VCSH SCT025 BKN050
     FM010400 17004KT P6SM BKN025=



000
FTUS46 KMTR 281100
TAFSJC
TAF
KSJC 281139Z 2812/0112 27005KT P6SM VCSH BKN030 OVC040
     FM281900 32007KT P6SM VCSH BKN050
      TEMPO 2819/2823 SHRA BKN025
     FM010500 19003KT P6SM SCT040 BKN050=



000
FTUS46 KMTR 281100
TAFSNS
TAF
KSNS 281139Z 2812/0112 21005KT P6SM -SHRA BKN035 OVC050
     FM281900 25006KT P6SM -SHRA SCT025 BKN040
      TEMPO 2819/2822 SHRA BKN025
     FM282200 27010KT P6SM -SHRA SCT025 BKN040
     FM010200 27005KT P6SM VCSH SCT025 BKN050
     FM010400 VRB03KT P6SM BKN025=



000
FTUS46 KMTR 281100
TAFSTS
TAF
KSTS 281139Z 2812/0112 VRB03KT P6SM SCT040
     FM281900 04003KT P6SM VCSH SCT030 BKN040
     FM010200 VRB03KT P6SM VCSH SCT030 BKN040
     FM010600 VRB03KT P6SM SCT030=



000
FTUS46 KMTR 281100
TAFLVK
TAF
KLVK 281139Z 2812/0112 00000KT P6SM SCT030 BKN040
     FM282000 28010KT P6SM VCSH SCT030 BKN040
      TEMPO 2820/2824 SHRA BKN025
     FM010500 VRB03KT P6SM SCT040=



000
FTUS46 KMTR 281000 AAA
TAFLVK
TAF AMD
KLVK 281005Z 2810/0106 24005KT P6SM SCT030 BKN070
     FM281200 25010KT P6SM BKN040
     FM282200 24004KT P6SM SCT040=



000
FTUS46 KMTR 281000 AAA
TAFLVK
TAF AMD
KLVK 281005Z 2810/0106 24005KT P6SM SCT030 BKN070
     FM281200 25010KT P6SM BKN040
     FM282200 24004KT P6SM SCT040=



000
FTUS46 KMTR 280900 AAA
TAFSFO
TAF AMD
KSFO 280901Z 2809/0112 28020G25KT P6SM SCT015 BKN040
     FM281300 28010KT P6SM VCSH SCT020 BKN040
     FM282000 29016G20KT P6SM SCT030
     FM010300 29009KT P6SM SCT020=



000
FTUS46 KMTR 280800 AAB
TAFOAK
TAF AMD
KOAK 280848Z 2809/0112 28015G25KT P6SM SCT020 BKN040
     FM281200 29010KT P6SM SCT020 BKN040
     FM282100 29014G19KT P6SM SCT020
     FM010300 29009KT P6SM SCT020=



000
FTUS46 KMTR 280800 AAA
TAFOAK
TAF AMD
KOAK 280847Z 2809/0112 27015G25KT P6SM SCT020 BKN040
     FM281200 29010KT P6SM SCT020 BKN040
     FM282100 29014G19KT P6SM SCT020
     FM010300 29009KT P6SM SCT020=



000
FTUS46 KMTR 280500
TAFSTS
TAF
KSTS 280536Z 2806/0106 30010KT P6SM SCT025 BKN050
     FM281200 32004KT P6SM BKN040
     FM281900 33005KT P6SM VCSH BKN040
     FM010200 VRB03KT P6SM SCT040=



000
FTUS46 KMTR 280500
TAFOAK
TAF
KOAK 280536Z 2806/0112 28020G30KT P6SM SCT025
     FM280800 27015G25KT P6SM SCT020 BKN040
     FM281200 29010KT P6SM SCT020 BKN040
     FM282100 29014G19KT P6SM SCT020
     FM010300 29009KT P6SM SCT020=



000
FTUS46 KMTR 280500
TAFSJC
TAF
KSJC 280536Z 2806/0106 30015G20KT P6SM FEW015 BKN040
     FM280800 28010KT P6SM FEW015 SCT040
     FM281200 19007KT P6SM BKN040
     FM282000 32007KT P6SM VCSH BKN050
     FM010300 30007KT P6SM SCT040=



000
FTUS46 KMTR 280500
TAFLVK
TAF
KLVK 280536Z 2806/0106 26015G25KT P6SM SCT030
     FM280800 24010G15KT P6SM FEW030
     FM281200 25010KT P6SM BKN040
     FM282200 24004KT P6SM SCT040=



000
FTUS46 KMTR 280500
TAFSFO
TAF
KSFO 280536Z 2806/0112 27020G32KT P6SM FEW030
     FM280900 28015G25KT P6SM SCT015 BKN040
     FM281300 30008KT P6SM VCSH SCT020 BKN040
     FM282000 29016G20KT P6SM SCT030
     FM010300 29009KT P6SM SCT020=



000
FTUS46 KMTR 280500
TAFSNS
TAF
KSNS 280536Z 2806/0106 26010G15KT P6SM SCT015 SCT025
     FM280800 28005KT P6SM VCSH BKN035
     FM281900 29009KT P6SM VCSH SCT040
     FM010300 24004KT P6SM SCT040=



000
FTUS46 KMTR 280500
TAFMRY
TAF
KMRY 280536Z 2806/0106 26010G15KT P6SM SCT010 SCT025
     FM280800 24010KT P6SM VCSH BKN035
     FM281800 29009KT P6SM SCT040
     FM010200 VRB03KT P6SM SCT030=



000
FTUS46 KMTR 280500
TAFOAK
TAF
KOAK 280536Z 2806/0112 28020G30KT P6SM SCT025
     FM280800 27015G25KT P6SM SCT020 BKN040
     FM281200 29010KT P6SM SCT020 BKN040
     FM282100 29014G19KT P6SM SCT020
     FM010300 29009KT P6SM SCT020=



000
FTUS46 KMTR 280500
TAFSTS
TAF
KSTS 280536Z 2806/0106 30010KT P6SM SCT025 BKN050
     FM281200 32004KT P6SM BKN040
     FM281900 33005KT P6SM VCSH BKN040
     FM010200 VRB03KT P6SM SCT040=



000
FTUS46 KMTR 280500
TAFSFO
TAF
KSFO 280536Z 2806/0112 27020G32KT P6SM FEW030
     FM280900 28015G25KT P6SM SCT015 BKN040
     FM281300 30008KT P6SM VCSH SCT020 BKN040
     FM282000 29016G20KT P6SM SCT030
     FM010300 29009KT P6SM SCT020=



000
FTUS46 KMTR 280500
TAFMRY
TAF
KMRY 280536Z 2806/0106 26010G15KT P6SM SCT010 SCT025
     FM280800 24010KT P6SM VCSH BKN035
     FM281800 29009KT P6SM SCT040
     FM010200 VRB03KT P6SM SCT030=



000
FTUS46 KMTR 280500
TAFLVK
TAF
KLVK 280536Z 2806/0106 26015G25KT P6SM SCT030
     FM280800 24010G15KT P6SM FEW030
     FM281200 25010KT P6SM BKN040
     FM282200 24004KT P6SM SCT040=



000
FTUS46 KMTR 280500
TAFSNS
TAF
KSNS 280536Z 2806/0106 26010G15KT P6SM SCT015 SCT025
     FM280800 28005KT P6SM VCSH BKN035
     FM281900 29009KT P6SM VCSH SCT040
     FM010300 24004KT P6SM SCT040=



000
FTUS46 KMTR 280500
TAFSJC
TAF
KSJC 280536Z 2806/0106 30015G20KT P6SM FEW015 BKN040
     FM280800 28010KT P6SM FEW015 SCT040
     FM281200 19007KT P6SM BKN040
     FM282000 32007KT P6SM VCSH BKN050
     FM010300 30007KT P6SM SCT040=



000
FTUS46 KMTR 280300 AAA
TAFSFO
TAF AMD
KSFO 280324Z 2803/0106 28025G35KT P6SM FEW015 SCT025 BKN040
     FM280400 27020G32KT P6SM FEW030
     FM280900 28015G25KT P6SM SCT015 BKN040
     FM281300 30008KT P6SM VCSH SCT020 BKN040
     FM282000 29016G20KT P6SM SCT030=



000
FTUS46 KMTR 272300 RRA
TAFSFO
TAF
KSFO 272348Z 2800/0106 28025G35KT P6SM FEW015 SCT025
     FM280300 27020G32KT P6SM FEW030
     FM280900 28015G25KT P6SM SCT015 BKN040
     FM281300 30008KT P6SM VCSH SCT020 BKN040
     FM282200 29012KT P6SM SCT030=



000
FTUS46 KMTR 272300 RRA
TAFOAK
TAF
KOAK 272348Z 2800/0106 28020G30KT P6SM SCT025
     FM280800 27015G25KT P6SM SCT020 BKN040
     FM281200 29010KT P6SM SCT020 BKN040
     FM282100 29014G19KT P6SM SCT020=



000
FTUS46 KMTR 272300 RRA
TAFLVK
TAF
KLVK 272348Z 2800/2824 26015G25KT P6SM SCT030
     FM280600 24010G15KT P6SM FEW030
     FM281200 25010KT P6SM BKN040=



000
FTUS46 KMTR 272300 RRA
TAFLVK
TAF
KLVK 272348Z 2800/2824 26015G25KT P6SM SCT030
     FM280600 24010G15KT P6SM FEW030
     FM281200 25010KT P6SM BKN040=



000
FTUS46 KMTR 272300 RRA
TAFSJC
TAF
KSJC 272348Z 2800/2824 30015G20KT P6SM FEW015 BKN040
     FM280600 28010KT P6SM FEW015 SCT040
     FM281200 19007KT P6SM BKN040
     FM282000 32007KT P6SM VCSH BKN050=



000
FTUS46 KMTR 272300 RRA
TAFSTS
TAF
KSTS 272348Z 2800/2824 34015G20KT P6SM SCT050
     FM280400 30010KT P6SM SCT025 BKN050
     FM281200 32004KT P6SM BKN040
     FM281900 33005KT P6SM VCSH BKN040=



000
FTUS46 KMTR 272300 RRA
TAFSNS
TAF
KSNS 272348Z 2800/2824 27020G25KT P6SM SCT030
     FM280300 26010G15KT P6SM SCT015 SCT025
     FM280800 28005KT P6SM VCSH BKN035
     FM281900 29009KT P6SM VCSH SCT040=



000
FTUS46 KMTR 272300 RRA
TAFSJC
TAF
KSJC 272348Z 2800/2824 30015G20KT P6SM FEW015 BKN040
     FM280600 28010KT P6SM FEW015 SCT040
     FM281200 19007KT P6SM BKN040
     FM282000 32007KT P6SM VCSH BKN050=



000
FTUS46 KMTR 272300 RRA
TAFMRY
TAF
KMRY 272348Z 2800/2824 28012G20KT P6SM BKN017 BKN025
     FM280300 26010G15KT P6SM SCT010 SCT025
     FM280800 24010KT P6SM VCSH BKN035
     FM281800 29009KT P6SM SCT040=



000
FTUS46 KMTR 272300 RRA
TAFOAK
TAF
KOAK 272348Z 2800/0106 28020G30KT P6SM SCT025
     FM280800 27015G25KT P6SM SCT020 BKN040
     FM281200 29010KT P6SM SCT020 BKN040
     FM282100 29014G19KT P6SM SCT020=



000
FTUS46 KMTR 272300 RRA
TAFSFO
TAF
KSFO 272348Z 2800/0106 28025G35KT P6SM FEW015 SCT025
     FM280300 27020G32KT P6SM FEW030
     FM280900 28015G25KT P6SM SCT015 BKN040
     FM281300 30008KT P6SM VCSH SCT020 BKN040
     FM282200 29012KT P6SM SCT030=



000
FTUS46 KMTR 272300 RRA
TAFSTS
TAF
KSTS 272348Z 2800/2824 34015G20KT P6SM SCT050
     FM280400 30010KT P6SM SCT025 BKN050
     FM281200 32004KT P6SM BKN040
     FM281900 33005KT P6SM VCSH BKN040=



000
FTUS46 KMTR 272300 RRA
TAFMRY
TAF
KMRY 272348Z 2800/2824 28012G20KT P6SM BKN017 BKN025
     FM280300 26010G15KT P6SM SCT010 SCT025
     FM280800 24010KT P6SM VCSH BKN035
     FM281800 29009KT P6SM SCT040=



000
FTUS46 KMTR 272300 RRA
TAFSNS
TAF
KSNS 272348Z 2800/2824 27020G25KT P6SM SCT030
     FM280300 26010G15KT P6SM SCT015 SCT025
     FM280800 28005KT P6SM VCSH BKN035
     FM281900 29009KT P6SM VCSH SCT040=



000
FTUS46 KMTR 272200 AAA
TAFMRY
TAF AMD
KMRY 272204Z 2722/2818 28012G20KT P6SM BKN017 BKN025
     FM280300 26010G15KT P6SM SCT010 SCT025
     FM280800 24010KT P6SM VCSH BKN035=



000
FTUS46 KMTR 272200 AAA
TAFMRY
TAF AMD
KMRY 272204Z 2722/2818 28012G20KT P6SM BKN017 BKN025
     FM280300 26010G15KT P6SM SCT010 SCT025
     FM280800 24010KT P6SM VCSH BKN035=



000
FTUS46 KMTR 272000 AAA
TAFSFO
TAF AMD
KSFO 272003Z 2720/2824 28018G25KT P6SM FEW010 SCT020
      TEMPO 2720/2722 BKN020
     FM272200 28020G32KT P6SM SCT025 BKN050
     FM272300 27025G35KT P6SM SCT025
     FM280300 27020G32KT P6SM SCT020
     FM280900 28015G25KT P6SM SCT015 BKN040
     FM281300 30008KT P6SM VCSH SCT020 BKN040=



000
FTUS46 KMTR 272000 AAA
TAFSFO
TAF AMD
KSFO 272003Z 2720/2824 28018G25KT P6SM FEW010 SCT020
      TEMPO 2720/2722 BKN020
     FM272200 28020G32KT P6SM SCT025 BKN050
     FM272300 27025G35KT P6SM SCT025
     FM280300 27020G32KT P6SM SCT020
     FM280900 28015G25KT P6SM SCT015 BKN040
     FM281300 30008KT P6SM VCSH SCT020 BKN040=



000
FTUS46 KMTR 271700
TAFMRY
TAF
KMRY 271738Z 2718/2818 27012KT P6SM SCT035
     FM272000 28015G25KT P6SM FEW015 SCT035
     FM280300 26010G15KT P6SM SCT010 SCT025
     FM280800 24010KT P6SM VCSH BKN035=



000
FTUS46 KMTR 271700
TAFSFO
TAF
KSFO 271738Z 2718/2824 28018G25KT P6SM FEW008 SCT020
      TEMPO 2718/2719 BKN020
     FM272100 28020G32KT P6SM SCT025 BKN050
     FM272300 27025G35KT P6SM SCT025
     FM280300 27020G32KT P6SM SCT020
     FM280900 28015G25KT P6SM SCT015 BKN040
     FM281300 30008KT P6SM VCSH SCT020 BKN040=



000
FTUS46 KMTR 271700
TAFSJC
TAF
KSJC 271738Z 2718/2818 29005KT P6SM FEW009 SCT015 BKN022
     FM271900 31010G20KT P6SM SCT025 BKN040
     FM272200 30017G25KT P6SM SCT025 BKN040
     FM280600 28010KT P6SM SCT025 BKN040
     FM281200 19007KT P6SM VCSH BKN040=



000
FTUS46 KMTR 271700
TAFSTS
TAF
KSTS 271738Z 2718/2818 33008KT P6SM BKN040
     FM272000 29015G20KT P6SM SCT035 BKN050
     FM280400 30010KT P6SM SCT025 BKN050
     FM281200 32004KT P6SM BKN040=



000
FTUS46 KMTR 271700
TAFOAK
TAF
KOAK 271738Z 2718/2824 29015KT P6SM SCT020
     FM272000 28015G20KT P6SM BKN035
     FM272200 28020G30KT P6SM SCT025
     FM280800 27015G25KT P6SM SCT020 BKN040
     FM281200 29010KT P6SM VCSH SCT020 BKN040=



000
FTUS46 KMTR 271700
TAFSNS
TAF
KSNS 271738Z 2718/2818 27010KT P6SM SCT020
     FM272200 27015G25KT P6SM SCT015 SCT035
     FM280300 26010G15KT P6SM SCT015 BKN025
     FM280700 28005KT P6SM VCSH BKN035=



000
FTUS46 KMTR 271700
TAFLVK
TAF
KLVK 271738Z 2718/2818 25010KT P6SM BKN026
     FM271930 26014G20KT P6SM BKN040
     FM280600 24010G15KT P6SM BKN040
     FM281200 25010KT P6SM VCSH BKN040=



000
FTUS46 KMTR 271700
TAFMRY
TAF
KMRY 271738Z 2718/2818 27012KT P6SM SCT035
     FM272000 28015G25KT P6SM FEW015 SCT035
     FM280300 26010G15KT P6SM SCT010 SCT025
     FM280800 24010KT P6SM VCSH BKN035=



000
FTUS46 KMTR 271700
TAFLVK
TAF
KLVK 271738Z 2718/2818 25010KT P6SM BKN026
     FM271930 26014G20KT P6SM BKN040
     FM280600 24010G15KT P6SM BKN040
     FM281200 25010KT P6SM VCSH BKN040=



000
FTUS46 KMTR 271700
TAFSFO
TAF
KSFO 271738Z 2718/2824 28018G25KT P6SM FEW008 SCT020
      TEMPO 2718/2719 BKN020
     FM272100 28020G32KT P6SM SCT025 BKN050
     FM272300 27025G35KT P6SM SCT025
     FM280300 27020G32KT P6SM SCT020
     FM280900 28015G25KT P6SM SCT015 BKN040
     FM281300 30008KT P6SM VCSH SCT020 BKN040=



000
FTUS46 KMTR 271700
TAFSTS
TAF
KSTS 271738Z 2718/2818 33008KT P6SM BKN040
     FM272000 29015G20KT P6SM SCT035 BKN050
     FM280400 30010KT P6SM SCT025 BKN050
     FM281200 32004KT P6SM BKN040=



000
FTUS46 KMTR 271700
TAFSJC
TAF
KSJC 271738Z 2718/2818 29005KT P6SM FEW009 SCT015 BKN022
     FM271900 31010G20KT P6SM SCT025 BKN040
     FM272200 30017G25KT P6SM SCT025 BKN040
     FM280600 28010KT P6SM SCT025 BKN040
     FM281200 19007KT P6SM VCSH BKN040=



000
FTUS46 KMTR 271700
TAFOAK
TAF
KOAK 271738Z 2718/2824 29015KT P6SM SCT020
     FM272000 28015G20KT P6SM BKN035
     FM272200 28020G30KT P6SM SCT025
     FM280800 27015G25KT P6SM SCT020 BKN040
     FM281200 29010KT P6SM VCSH SCT020 BKN040=



000
FTUS46 KMTR 271700
TAFSNS
TAF
KSNS 271738Z 2718/2818 27010KT P6SM SCT020
     FM272200 27015G25KT P6SM SCT015 SCT035
     FM280300 26010G15KT P6SM SCT015 BKN025
     FM280700 28005KT P6SM VCSH BKN035=



000
FTUS46 KMTR 271700 AAA
TAFLVK
TAF AMD
KLVK 271709Z 2717/2812 25010KT P6SM BKN026
     FM272000 26014G20KT P6SM BKN040 OVC100
     FM280600 24010G15KT P6SM BKN025 OVC035=



000
FTUS46 KMTR 271700 AAA
TAFLVK
TAF AMD
KLVK 271709Z 2717/2812 25010KT P6SM BKN026
     FM272000 26014G20KT P6SM BKN040 OVC100
     FM280600 24010G15KT P6SM BKN025 OVC035=



000
FTUS46 KMTR 271700 AAC
TAFSJC
TAF AMD
KSJC 271708Z 2717/2812 29005KT P6SM FEW009 SCT015 BKN022
     FM271900 31015G20KT P6SM SCT025 BKN040
     FM272200 30021G29KT P6SM SCT025 BKN040
     FM280600 28010KT P6SM BKN025 OVC035=



000
FTUS46 KMTR 271700 AAC
TAFSJC
TAF AMD
KSJC 271708Z 2717/2812 29005KT P6SM FEW009 SCT015 BKN022
     FM271900 31015G20KT P6SM SCT025 BKN040
     FM272200 30021G29KT P6SM SCT025 BKN040
     FM280600 28010KT P6SM BKN025 OVC035=



000
FTUS46 KMTR 271700 AAD
TAFSFO
TAF AMD
KSFO 271706Z 2717/2818 29009G19KT P6SM FEW008 BKN015 BKN018
     FM271800 28018G25KT P6SM SCT020 BKN150
      TEMPO 2718/2719 BKN020
     FM272100 28025G32KT P6SM SCT025 BKN050 BKN150
     FM272300 27030G38KT P6SM SCT025 BKN100
     FM280300 27025G32KT P6SM SCT020 BKN150
     FM280900 28018G25KT P6SM SCT015 BKN025=



000
FTUS46 KMTR 271700 AAD
TAFSFO
TAF AMD
KSFO 271706Z 2717/2818 29009G19KT P6SM FEW008 BKN015 BKN018
     FM271800 28018G25KT P6SM SCT020 BKN150
      TEMPO 2718/2719 BKN020
     FM272100 28025G32KT P6SM SCT025 BKN050 BKN150
     FM272300 27030G38KT P6SM SCT025 BKN100
     FM280300 27025G32KT P6SM SCT020 BKN150
     FM280900 28018G25KT P6SM SCT015 BKN025=



000
FTUS46 KMTR 271500 AAC
TAFMRY
TAF AMD
KMRY 271533Z 2716/2812 28007KT P6SM FEW030
     FM271700 28012KT P6SM SCT035
     FM272000 28015G25KT P6SM FEW015 SCT025 BKN035
     FM280300 26010G15KT P6SM SCT015 BKN025
     FM280800 24010KT P6SM BKN015 OVC020=



000
FTUS46 KMTR 271500 AAC
TAFMRY
TAF AMD
KMRY 271533Z 2716/2812 28007KT P6SM FEW030
     FM271700 28012KT P6SM SCT035
     FM272000 28015G25KT P6SM FEW015 SCT025 BKN035
     FM280300 26010G15KT P6SM SCT015 BKN025
     FM280800 24010KT P6SM BKN015 OVC020=



000
FTUS46 KMTR 271500 AAB
TAFSJC
TAF AMD
KSJC 271529Z 2715/2812 29006KT P6SM FEW013 SCT028
     FM271700 30011KT P6SM FEW025 SCT040
     FM271900 31015G20KT P6SM SCT025 BKN040
     FM272200 30021G29KT P6SM SCT025 BKN040
     FM280600 28010KT P6SM BKN025 OVC035=



000
FTUS46 KMTR 271500 AAB
TAFSJC
TAF AMD
KSJC 271529Z 2715/2812 29006KT P6SM FEW013 SCT028
     FM271700 30011KT P6SM FEW025 SCT040
     FM271900 31015G20KT P6SM SCT025 BKN040
     FM272200 30021G29KT P6SM SCT025 BKN040
     FM280600 28010KT P6SM BKN025 OVC035=



000
FTUS46 KMTR 271400 AAB
TAFMRY
TAF AMD
KMRY 271449Z 2715/2812 26010G15KT P6SM SCT015
      TEMPO 2715/2717 BKN015
     FM271700 28012G20KT P6SM SCT015 BKN035
     FM272000 28015G25KT P6SM FEW015 SCT025 BKN035
     FM280300 26010G15KT P6SM SCT015 BKN025
     FM280800 24010KT P6SM BKN015 OVC020=



000
FTUS46 KMTR 271400 AAB
TAFMRY
TAF AMD
KMRY 271449Z 2715/2812 26010G15KT P6SM SCT015
      TEMPO 2715/2717 BKN015
     FM271700 28012G20KT P6SM SCT015 BKN035
     FM272000 28015G25KT P6SM FEW015 SCT025 BKN035
     FM280300 26010G15KT P6SM SCT015 BKN025
     FM280800 24010KT P6SM BKN015 OVC020=



000
FTUS46 KMTR 271400 AAC
TAFSFO
TAF AMD
KSFO 271446Z 2715/2818 29015G20KT P6SM FEW008 SCT150
      TEMPO 2715/2717 BKN015
     FM271700 28018G25KT P6SM SCT020 BKN150
     FM272100 28025G32KT P6SM SCT025 BKN100
     FM272300 27030G38KT P6SM SCT025 BKN100
     FM280300 27025G32KT P6SM SCT020 BKN150
     FM280900 28018G25KT P6SM SCT015 BKN025=



000
FTUS46 KMTR 271400 AAC
TAFSFO
TAF AMD
KSFO 271446Z 2715/2818 29015G20KT P6SM FEW008 SCT150
      TEMPO 2715/2717 BKN015
     FM271700 28018G25KT P6SM SCT020 BKN150
     FM272100 28025G32KT P6SM SCT025 BKN100
     FM272300 27030G38KT P6SM SCT025 BKN100
     FM280300 27025G32KT P6SM SCT020 BKN150
     FM280900 28018G25KT P6SM SCT015 BKN025=



000
FTUS46 KMTR 271200 AAB
TAFSFO
TAF AMD
KSFO 271240Z 2713/2818 29015G20KT P6SM SCT012
      TEMPO 2713/2716 BKN015
     FM271700 28018G25KT P6SM SCT020 BKN150
     FM272100 28025G32KT P6SM SCT025 BKN100
     FM272300 27030G38KT P6SM SCT025 BKN100
     FM280300 27025G32KT P6SM SCT020 BKN150
     FM280900 28018G25KT P6SM SCT015 BKN025=



000
FTUS46 KMTR 271200 AAA
TAFOAK
TAF AMD
KOAK 271240Z 2713/2818 33006KT P6SM FEW010 SCT015
      TEMPO 2713/2716 BKN015
     FM271700 31010KT P6SM FEW012 SCT022 BKN150
     FM272000 28015G20KT P6SM BKN025 BKN100
     FM272200 28020G30KT P6SM SCT025 BKN100
     FM280800 27015G25KT P6SM SCT015 BKN025
     FM281200 29010KT P6SM SCT015 BKN025=



000
FTUS46 KMTR 271200 AAA
TAFSFO
TAF AMD
KSFO 271204Z 2712/2818 29015G20KT P6SM SCT012
     FM271700 28018G25KT P6SM SCT020 BKN150
     FM272100 28025G32KT P6SM SCT025 BKN100
     FM272300 27030G38KT P6SM SCT025 BKN100
     FM280300 27025G32KT P6SM SCT020 BKN150
     FM280900 28018G25KT P6SM SCT015 BKN025=



000
FTUS46 KMTR 271200 AAA
TAFMRY
TAF AMD
KMRY 271204Z 2712/2812 26010G15KT P6SM OVC015
     FM271700 28012G20KT P6SM SCT015 BKN035
     FM272000 28015G25KT P6SM FEW015 SCT025 BKN035
     FM280300 26010G15KT P6SM SCT015 BKN025
     FM280800 24010KT P6SM BKN015 OVC020=



000
FTUS46 KMTR 271200 AAA
TAFSJC
TAF AMD
KSJC 271202Z 2712/2812 29005KT P6SM BKN025
     FM271700 30011KT P6SM SCT025 BKN040
     FM271900 31015G20KT P6SM SCT025 BKN040
     FM272200 30021G29KT P6SM SCT025 BKN040
     FM280600 28010KT P6SM BKN025 OVC035=



000
FTUS46 KMTR 271100
TAFSTS
TAF
KSTS 271140Z 2712/2812 33008KT P6SM SKC
     FM271800 33012KT P6SM SCT018
     FM272000 29015G20KT P6SM SCT035 BKN050
     FM280400 30010KT P6SM SCT025 BKN050=



000
FTUS46 KMTR 271100
TAFSNS
TAF
KSNS 271140Z 2712/2812 22005KT P6SM SCT020
      TEMPO 2712/2714 BKN025
     FM271400 24004KT P6SM BKN025
     FM271800 27010KT P6SM BKN025
     FM272200 27015G25KT P6SM SCT015 BKN025
     FM280300 26010G15KT P6SM SCT015 BKN025
     FM280600 28005KT P6SM BKN015 OVC020=



000
FTUS46 KMTR 271100
TAFOAK
TAF
KOAK 271140Z 2712/2818 33006KT P6SM FEW010 SCT015
     FM271700 31010KT P6SM FEW012 SCT022 BKN150
     FM272000 28015G20KT P6SM BKN025 BKN100
     FM272200 28020G30KT P6SM SCT025 BKN100
     FM280800 27015G25KT P6SM SCT015 BKN025
     FM281200 29010KT P6SM SCT015 BKN025=



000
FTUS46 KMTR 271100
TAFLVK
TAF
KLVK 271140Z 2712/2812 24004KT P6SM SKC
     FM271700 25008KT P6SM SCT025 BKN150
     FM272000 26014G20KT P6SM BKN025 OVC100
     FM280600 24010G15KT P6SM BKN025 OVC035=



000
FTUS46 KMTR 271100
TAFSFO
TAF
KSFO 271140Z 2712/2818 29012KT P6SM FEW012
     FM271700 28018G25KT P6SM SCT020 BKN150
     FM272100 28025G32KT P6SM SCT025 BKN100
     FM272300 27030G38KT P6SM SCT025 BKN100
     FM280300 27025G32KT P6SM SCT020 BKN150
     FM280900 28018G25KT P6SM SCT015 BKN025=



000
FTUS46 KMTR 271100
TAFSJC
TAF
KSJC 271140Z 2712/2812 29005KT P6SM SCT035
     FM271700 30011KT P6SM SCT025 BKN040
     FM271900 31015G20KT P6SM SCT025 BKN040
     FM272200 30021G29KT P6SM SCT025 BKN040
     FM280600 28010KT P6SM BKN025 OVC035=



000
FTUS46 KMTR 271100
TAFMRY
TAF
KMRY 271140Z 2712/2812 26007KT P6SM BKN015
     FM271700 28012G20KT P6SM SCT015 BKN035
     FM272000 28015G25KT P6SM FEW015 SCT025 BKN035
     FM280300 26010G15KT P6SM SCT015 BKN025
     FM280800 24010KT P6SM BKN015 OVC020=



000
FTUS46 KMTR 270900 AAA
TAFSTS
TAF AMD
KSTS 270906Z 2709/2806 33008KT P6SM SKC
     FM271200 35008KT P6SM BKN012
     FM271700 29006KT P6SM SCT018
     FM272000 29015G20KT P6SM SCT035 BKN050 PROB30 2721/2724 -SHRA
      BKN030=



000
FTUS46 KMTR 270900 AAA
TAFOAK
TAF AMD
KOAK 270904Z 2709/2812 32007KT P6SM FEW012 SCT020
     FM271200 29008KT P6SM BKN015
     FM271700 28012KT P6SM SCT022 BKN150
     FM272100 28015KT P6SM SCT025 BKN100
     FM280000 27022KT P6SM SCT025 BKN100=



000
FTUS46 KMTR 270900 AAA
TAFSFO
TAF AMD
KSFO 270903Z 2709/2812 28018KT P6SM FEW012 SCT020
     FM271200 29018KT P6SM FEW012 BKN015
     FM271700 28018G25KT P6SM SCT020 BKN150
     FM272100 28020G30KT P6SM SCT025 BKN100=



000
FTUS46 KMTR 270700 AAA
TAFSNS
TAF AMD
KSNS 270748Z 2708/2806 25006KT P6SM BKN016
     FM271000 25006KT P6SM OVC020
     FM271500 27004KT P6SM OVC025
     FM272100 27012G18KT P6SM BKN025=



000
FTUS46 KMTR 270500
TAFSNS
TAF
KSNS 270539Z 2706/2806 25010KT P6SM SKC
     FM271700 29010KT P6SM SCT015
     FM272100 29012KT P6SM FEW022=



000
FTUS46 KMTR 270500
TAFSFO
TAF
KSFO 270539Z 2706/2812 28019G26KT P6SM FEW013 SCT150
     FM270900 28018KT P6SM BKN020
     FM271700 28013KT P6SM SCT020 BKN150
     FM272100 28020G30KT P6SM SCT025 BKN100=



000
FTUS46 KMTR 270500
TAFLVK
TAF
KLVK 270539Z 2706/2806 30004KT P6SM SKC
     FM271700 29010KT P6SM FEW025 BKN150
     FM272000 26010G16KT P6SM BKN050 OVC100
     FM280000 26015G22KT P6SM BKN250=



000
FTUS46 KMTR 270500
TAFMRY
TAF
KMRY 270539Z 2706/2806 24007KT P6SM BKN012 OVC017
     FM271700 28010KT P6SM SCT022
     FM272100 28012KT P6SM FEW025=



000
FTUS46 KMTR 270500
TAFOAK
TAF
KOAK 270539Z 2706/2812 28008KT P6SM FEW200
     FM270900 29008KT P6SM BKN018
     FM271700 28012KT P6SM SCT022 BKN150
     FM272100 28015KT P6SM SCT025 BKN100
     FM280000 27022KT P6SM SCT025 BKN100=



000
FTUS46 KMTR 270500
TAFSJC
TAF
KSJC 270539Z 2706/2806 32007KT P6SM SKC
      TEMPO 2712/2716 BKN020
     FM271700 30011KT P6SM FEW025 BKN100
     FM271900 31015G20KT P6SM BKN050 OVC100=



000
FTUS46 KMTR 270500
TAFSTS
TAF
KSTS 270539Z 2706/2806 35008KT P6SM SKC
     FM270900 33008KT P6SM BKN020
     FM271700 29006KT P6SM SCT018
     FM272000 29015G20KT P6SM SCT035 BKN050 PROB30 2721/2724 -SHRA
      BKN030=



000
FTUS46 KMTR 270300 AAA
TAFSFO
TAF AMD
KSFO 270309Z 2703/2806 28018KT P6SM FEW019 BKN150
     FM270900 28018KT P6SM BKN020
     FM271700 28013KT P6SM SCT020 BKN150
     FM272100 28020G30KT P6SM SCT025 BKN100=



000
FTUS46 KMTR 262300
TAFSTS
TAF
KSTS 262335Z 2700/2724 33013G17KT P6SM SCT250
     FM270600 33005KT P6SM SCT050 SCT150
     FM270900 VRB03KT P6SM BKN020
     FM271700 29006KT P6SM SCT018
     FM272000 29015G20KT P6SM SCT035 BKN050 PROB30 2721/2724 -SHRA
      BKN030=



000
FTUS46 KMTR 262300
TAFMRY
TAF
KMRY 262335Z 2700/2724 27010KT P6SM SKC
     FM270600 26008KT P6SM BKN020
     FM271700 28010KT P6SM SCT022
     FM272100 28012KT P6SM FEW025=



000
FTUS46 KMTR 262300
TAFSNS
TAF
KSNS 262335Z 2700/2724 27012KT P6SM SKC
     FM270300 28008KT P6SM FEW015
     FM270600 29006KT P6SM BKN012
     FM271700 29010KT P6SM SCT015
     FM272100 29012KT P6SM FEW022=



000
FTUS46 KMTR 262300
TAFLVK
TAF
KLVK 262335Z 2700/2724 30006KT P6SM SKC
     FM270400 28006KT P6SM SCT150
     FM271700 29010KT P6SM FEW025 BKN150
     FM272000 26010G16KT P6SM BKN050 OVC100=



000
FTUS46 KMTR 262300
TAFOAK
TAF
KOAK 262335Z 2700/2806 27012KT P6SM FEW015 BKN200
     FM270400 29009KT P6SM FEW020 SCT200
     FM270900 29008KT P6SM BKN018
     FM271700 28012KT P6SM SCT022 BKN150
     FM272100 28015KT P6SM SCT025 BKN100
     FM280000 27022KT P6SM SCT025 BKN100=



000
FTUS46 KMTR 262300
TAFSJC
TAF
KSJC 262335Z 2700/2724 30012KT P6SM FEW090 SCT160 BKN250
     FM270500 31008KT P6SM FEW020 SCT200
      TEMPO 2712/2716 BKN020
     FM271700 30011KT P6SM FEW025 BKN100
     FM271900 31015G20KT P6SM BKN050 OVC100=



000
FTUS46 KMTR 262300
TAFSFO
TAF
KSFO 262335Z 2700/2806 28020G28KT P6SM BKN180
     FM270900 28018G25KT P6SM BKN020
     FM271700 28013KT P6SM SCT020 BKN150
     FM272100 28020G30KT P6SM SCT025 BKN100=



000
FTUS46 KMTR 262200 AAB
TAFSFO
TAF AMD
KSFO 262234Z 2623/2724 28018G28KT P6SM BKN180
     FM270900 28012G18KT P6SM BKN015
     FM271700 28013KT P6SM SCT018 BKN150
     FM272100 28016G25KT P6SM FEW020 BKN100=



000
FTUS46 KMTR 262200 AAA
TAFOAK
TAF AMD
KOAK 262234Z 2623/2724 26011G19KT P6SM BKN200
     FM270400 29009KT P6SM FEW020 SCT200
     FM270900 29008KT P6SM BKN015
     FM271700 28012KT P6SM SCT018 BKN150
     FM272100 28015KT P6SM FEW020 BKN100=



000
FTUS46 KMTR 262200 AAA
TAFOAK
TAF AMD
KOAK 262234Z 2623/2724 26011G19KT P6SM BKN200
     FM270400 29009KT P6SM FEW020 SCT200
     FM270900 29008KT P6SM BKN015
     FM271700 28012KT P6SM SCT018 BKN150
     FM272100 28015KT P6SM FEW020 BKN100=



000
FTUS46 KMTR 262200 AAB
TAFSFO
TAF AMD
KSFO 262234Z 2623/2724 28018G28KT P6SM BKN180
     FM270900 28012G18KT P6SM BKN015
     FM271700 28013KT P6SM SCT018 BKN150
     FM272100 28016G25KT P6SM FEW020 BKN100=



000
FTUS46 KMTR 262200 AAA
TAFSJC
TAF AMD
KSJC 262234Z 2623/2718 30009G18KT P6SM FEW090 SCT160 BKN250
     FM270500 31008KT P6SM FEW020 SCT200
      TEMPO 2712/2716 BKN020
     FM271700 30009KT P6SM FEW025 BKN100=



000
FTUS46 KMTR 262200 AAA
TAFSTS
TAF AMD
KSTS 262233Z 2623/2718 36012KT P6SM FEW050 SCT250
     FM270600 33005KT P6SM SCT150
     FM270900 VRB03KT P6SM BKN011
     FM271700 29006KT P6SM SCT015=



000
FTUS46 KMTR 262200 AAA
TAFSTS
TAF AMD
KSTS 262233Z 2623/2718 36012KT P6SM FEW050 SCT250
     FM270600 33005KT P6SM SCT150
     FM270900 VRB03KT P6SM BKN011
     FM271700 29006KT P6SM SCT015=



000
FTUS46 KMTR 262100 AAA
TAFSFO
TAF AMD
KSFO 262109Z 2621/2724 28013KT P6SM BKN180
     FM262200 28020G28KT P6SM BKN200
     FM270900 28012G18KT P6SM BKN015
     FM271700 28013KT P6SM SCT018 BKN150
     FM272100 28016G25KT P6SM FEW020 BKN100=



000
FTUS46 KMTR 261700
TAFSTS
TAF
KSTS 261737Z 2618/2718 29005KT P6SM BKN200
     FM262100 33012G18KT P6SM SCT200
     FM270600 33005KT P6SM SCT150
     FM270900 VRB03KT P6SM BKN011
     FM271700 29006KT P6SM SCT015=



000
FTUS46 KMTR 261700
TAFLVK
TAF
KLVK 261737Z 2618/2718 31008KT P6SM FEW200
     FM270400 28006KT P6SM SCT150
     FM271700 29010KT P6SM FEW025 BKN150=



000
FTUS46 KMTR 261700
TAFSJC
TAF
KSJC 261737Z 2618/2718 30005KT P6SM FEW010 SCT080 BKN130
     FM262100 32012G20KT P6SM SCT150
     FM270500 31008KT P6SM FEW020 SCT200
      TEMPO 2712/2716 BKN020
     FM271700 30009KT P6SM FEW025 BKN100=



000
FTUS46 KMTR 261700
TAFSNS
TAF
KSNS 261737Z 2618/2718 28005KT P6SM SCT009
     FM261900 28008KT P6SM FEW012 FEW200
     FM262200 28015G20KT P6SM FEW200
     FM270300 28008KT P6SM FEW015
     FM270600 29006KT P6SM BKN012
     FM271700 29010KT P6SM SCT015=



000
FTUS46 KMTR 261700
TAFOAK
TAF
KOAK 261737Z 2618/2724 28006KT P6SM SCT200
     FM262100 29015G20KT P6SM FEW200
     FM270400 29009KT P6SM FEW020 SCT200
     FM270900 29008KT P6SM BKN015
     FM271700 28012KT P6SM SCT018 BKN150
     FM272100 28015KT P6SM FEW020 BKN100=



000
FTUS46 KMTR 261700
TAFSFO
TAF
KSFO 261737Z 2618/2724 33005KT P6SM FEW006 BKN180
     FM262000 30012G18KT P6SM SCT200
     FM262200 28020G28KT P6SM BKN200
     FM271000 28012G18KT P6SM BKN015
     FM271700 28013KT P6SM SCT018 BKN150
     FM272100 28016G25KT P6SM FEW020 BKN100=



000
FTUS46 KMTR 261700
TAFMRY
TAF
KMRY 261737Z 2618/2718 29007KT P6SM SCT200
     FM262000 29010G15KT P6SM FEW200
     FM270600 26008KT P6SM BKN015
     FM271630 28010KT P6SM SCT018=



000
FTUS46 KMTR 261700
TAFSNS
TAF
KSNS 261737Z 2618/2718 28005KT P6SM SCT009
     FM261900 28008KT P6SM FEW012 FEW200
     FM262200 28015G20KT P6SM FEW200
     FM270300 28008KT P6SM FEW015
     FM270600 29006KT P6SM BKN012
     FM271700 29010KT P6SM SCT015=



000
FTUS46 KMTR 261700
TAFOAK
TAF
KOAK 261737Z 2618/2724 28006KT P6SM SCT200
     FM262100 29015G20KT P6SM FEW200
     FM270400 29009KT P6SM FEW020 SCT200
     FM270900 29008KT P6SM BKN015
     FM271700 28012KT P6SM SCT018 BKN150
     FM272100 28015KT P6SM FEW020 BKN100=



000
FTUS46 KMTR 261700
TAFMRY
TAF
KMRY 261737Z 2618/2718 29007KT P6SM SCT200
     FM262000 29010G15KT P6SM FEW200
     FM270600 26008KT P6SM BKN015
     FM271630 28010KT P6SM SCT018=



000
FTUS46 KMTR 261700
TAFSFO
TAF
KSFO 261737Z 2618/2724 33005KT P6SM FEW006 BKN180
     FM262000 30012G18KT P6SM SCT200
     FM262200 28020G28KT P6SM BKN200
     FM271000 28012G18KT P6SM BKN015
     FM271700 28013KT P6SM SCT018 BKN150
     FM272100 28016G25KT P6SM FEW020 BKN100=



000
FTUS46 KMTR 261400 AAA
TAFMRY
TAF AMD
KMRY 261447Z 2615/2712 09003KT P6SM SCT012
     FM261600 12004KT P6SM FEW015
     FM262000 30010G15KT P6SM FEW200
     FM270600 26008KT P6SM BKN020=



000
FTUS46 KMTR 261400 AAA
TAFSFO
TAF AMD
KSFO 261442Z 2615/2718 21003KT P6SM FEW180
     FM261600 29005KT P6SM SCT200
     FM261800 33008KT P6SM SCT200
     FM262000 30012G18KT P6SM SCT200
     FM262200 28018G26KT P6SM SCT200
     FM271000 28012G18KT P6SM BKN015=



000
FTUS46 KMTR 261400 AAA
TAFSFO
TAF AMD
KSFO 261442Z 2615/2718 21003KT P6SM FEW180
     FM261600 29005KT P6SM SCT200
     FM261800 33008KT P6SM SCT200
     FM262000 30012G18KT P6SM SCT200
     FM262200 28018G26KT P6SM SCT200
     FM271000 28012G18KT P6SM BKN015=



000
FTUS46 KMTR 261400 AAA
TAFOAK
TAF AMD
KOAK 261441Z 2615/2718 08004KT P6SM FEW010 SCT200
     FM261700 33005KT P6SM FEW010 SCT200
     FM262100 30015G20KT P6SM FEW200
     FM270400 29010KT P6SM FEW020 SCT200
     FM270900 29010KT P6SM BKN015=



000
FTUS46 KMTR 261400 AAA
TAFSTS
TAF AMD
KSTS 261440Z 2615/2712 VRB03KT 3SM BR SCT200
     FM261600 33005KT P6SM SCT200
     FM262100 33012G18KT P6SM SCT200
     FM270600 33006KT P6SM SCT150
     FM270900 25005KT P6SM BKN015=



000
FTUS46 KMTR 261100
TAFOAK
TAF
KOAK 261140Z 2612/2718 08004KT P6SM SCT010
      TEMPO 2612/2615 BKN010
     FM261700 33005KT P6SM FEW010 SCT200
     FM262100 30015G20KT P6SM FEW200
     FM270400 29010KT P6SM FEW020 SCT200
     FM270900 29010KT P6SM BKN015=



000
FTUS46 KMTR 261100
TAFSTS
TAF
KSTS 261140Z 2612/2712 VRB03KT 1SM BR SCT002
      TEMPO 2612/2616 1/2SM FG VV002
     FM261600 33005KT P6SM FEW007
     FM262100 33012G18KT P6SM FEW200
     FM270600 33006KT P6SM SCT150
     FM270900 25005KT P6SM BKN015=



000
FTUS46 KMTR 261100
TAFSNS
TAF
KSNS 261140Z 2612/2712 00000KT P6SM OVC012
     FM261600 13004KT P6SM FEW015
     FM262000 28008KT P6SM FEW200
     FM262200 28015G20KT P6SM FEW200
     FM270300 28010KT P6SM FEW015
     FM270600 29006KT P6SM BKN015=



000
FTUS46 KMTR 261100
TAFSFO
TAF
KSFO 261140Z 2612/2718 11004KT P6SM FEW012 SCT180
      TEMPO 2614/2616 BKN012
     FM261600 29005KT P6SM FEW012 SCT200
     FM261800 33008KT P6SM FEW012 SCT200
     FM262000 30012G18KT P6SM FEW015 SCT200
     FM262200 28018G26KT P6SM FEW015 SCT200
     FM271000 28012G18KT P6SM BKN015=



000
FTUS46 KMTR 261100
TAFLVK
TAF
KLVK 261140Z 2612/2712 32003KT P6SM FEW200
     FM262200 33009KT P6SM SCT200
     FM270400 28006KT P6SM SCT150
     FM270900 27005KT P6SM BKN025=



000
FTUS46 KMTR 261100
TAFMRY
TAF
KMRY 261140Z 2612/2712 17004KT P6SM SCT012
      TEMPO 2612/2616 BKN012
     FM261600 12004KT P6SM FEW015
     FM262000 30010G15KT P6SM FEW200
     FM270600 26008KT P6SM BKN020=



000
FTUS46 KMTR 261100
TAFOAK
TAF
KOAK 261140Z 2612/2718 08004KT P6SM SCT010
      TEMPO 2612/2615 BKN010
     FM261700 33005KT P6SM FEW010 SCT200
     FM262100 30015G20KT P6SM FEW200
     FM270400 29010KT P6SM FEW020 SCT200
     FM270900 29010KT P6SM BKN015=



000
FTUS46 KMTR 261100
TAFSFO
TAF
KSFO 261140Z 2612/2718 11004KT P6SM FEW012 SCT180
      TEMPO 2614/2616 BKN012
     FM261600 29005KT P6SM FEW012 SCT200
     FM261800 33008KT P6SM FEW012 SCT200
     FM262000 30012G18KT P6SM FEW015 SCT200
     FM262200 28018G26KT P6SM FEW015 SCT200
     FM271000 28012G18KT P6SM BKN015=



000
FTUS46 KMTR 261100
TAFSTS
TAF
KSTS 261140Z 2612/2712 VRB03KT 1SM BR SCT002
      TEMPO 2612/2616 1/2SM FG VV002
     FM261600 33005KT P6SM FEW007
     FM262100 33012G18KT P6SM FEW200
     FM270600 33006KT P6SM SCT150
     FM270900 25005KT P6SM BKN015=



000
FTUS46 KMTR 261100
TAFSJC
TAF
KSJC 261140Z 2612/2712 15003KT P6SM FEW015
     FM261700 30005KT P6SM SCT200
     FM262100 32012G20KT P6SM SCT200
     FM270500 31009KT P6SM FEW020 SCT200=



000
FTUS46 KMTR 261100
TAFSJC
TAF
KSJC 261140Z 2612/2712 15003KT P6SM FEW015
     FM261700 30005KT P6SM SCT200
     FM262100 32012G20KT P6SM SCT200
     FM270500 31009KT P6SM FEW020 SCT200=



000
FTUS46 KMTR 261100
TAFLVK
TAF
KLVK 261140Z 2612/2712 32003KT P6SM FEW200
     FM262200 33009KT P6SM SCT200
     FM270400 28006KT P6SM SCT150
     FM270900 27005KT P6SM BKN025=



000
FTUS46 KMTR 261100
TAFSNS
TAF
KSNS 261140Z 2612/2712 00000KT P6SM OVC012
     FM261600 13004KT P6SM FEW015
     FM262000 28008KT P6SM FEW200
     FM262200 28015G20KT P6SM FEW200
     FM270300 28010KT P6SM FEW015
     FM270600 29006KT P6SM BKN015=



000
FTUS46 KMTR 261100
TAFMRY
TAF
KMRY 261140Z 2612/2712 17004KT P6SM SCT012
      TEMPO 2612/2616 BKN012
     FM261600 12004KT P6SM FEW015
     FM262000 30010G15KT P6SM FEW200
     FM270600 26008KT P6SM BKN020=



000
FTUS46 KMTR 261000 AAA
TAFOAK
TAF AMD
KOAK 261031Z 2611/2712 30005KT P6SM SCT010
      TEMPO 2611/2615 BKN010
     FM261700 33005KT P6SM FEW010 SCT200
     FM262100 30011G20KT P6SM FEW200
     FM270400 29010KT P6SM FEW020 SCT200=



000
FTUS46 KMTR 261000 AAA
TAFOAK
TAF AMD
KOAK 261031Z 2611/2712 30005KT P6SM SCT010
      TEMPO 2611/2615 BKN010
     FM261700 33005KT P6SM FEW010 SCT200
     FM262100 30011G20KT P6SM FEW200
     FM270400 29010KT P6SM FEW020 SCT200=



000
FTUS46 KMTR 260900 AAA
TAFSFO
TAF AMD
KSFO 260902Z 2609/2712 17003KT P6SM FEW012 SCT180
     FM261800 33008KT P6SM FEW010 SCT200
     FM262100 30011KT P6SM FEW200
     FM262200 28018G26KT P6SM SCT200
     FM270600 28012KT P6SM FEW020 SCT200=



000
FTUS46 KMTR 260900 AAA
TAFSFO
TAF AMD
KSFO 260902Z 2609/2712 17003KT P6SM FEW012 SCT180
     FM261800 33008KT P6SM FEW010 SCT200
     FM262100 30011KT P6SM FEW200
     FM262200 28018G26KT P6SM SCT200
     FM270600 28012KT P6SM FEW020 SCT200=



000
FTUS46 KMTR 260800 AAA
TAFMRY
TAF AMD
KMRY 260844Z 2609/2706 22004KT P6SM OVC012
     FM261600 11004KT P6SM FEW015
     FM262000 30009KT P6SM FEW200
     FM270200 26006KT P6SM BKN020=



000
FTUS46 KMTR 260800 AAA
TAFMRY
TAF AMD
KMRY 260844Z 2609/2706 22004KT P6SM OVC012
     FM261600 11004KT P6SM FEW015
     FM262000 30009KT P6SM FEW200
     FM270200 26006KT P6SM BKN020=



000
FTUS46 KMTR 260800 AAA
TAFSNS
TAF AMD
KSNS 260842Z 2609/2706 00000KT P6SM BKN009
     FM261600 13004KT P6SM FEW010
     FM262000 28012KT P6SM FEW200
     FM270500 29006KT P6SM SCT200=



000
FTUS46 KMTR 260800 AAA
TAFSNS
TAF AMD
KSNS 260842Z 2609/2706 00000KT P6SM BKN009
     FM261600 13004KT P6SM FEW010
     FM262000 28012KT P6SM FEW200
     FM270500 29006KT P6SM SCT200=



000
FTUS46 KMTR 260800 AAA
TAFSTS
TAF AMD
KSTS 260840Z 2609/2706 00000KT 1 1/2SM BR SKC
     FM261700 33005KT P6SM FEW007
     FM262100 33012KT P6SM FEW200
     FM270400 33006KT P6SM SCT150=



000
FTUS46 KMTR 260800 AAA
TAFSTS
TAF AMD
KSTS 260840Z 2609/2706 00000KT 1 1/2SM BR SKC
     FM261700 33005KT P6SM FEW007
     FM262100 33012KT P6SM FEW200
     FM270400 33006KT P6SM SCT150=



000
FTUS46 KMTR 260500
TAFOAK
TAF
KOAK 260540Z 2606/2712 26005KT P6SM FEW200
     FM261100 30005KT P6SM FEW018 SCT200
     FM262100 30011G20KT P6SM FEW200
     FM270400 29010KT P6SM FEW020 SCT200=



000
FTUS46 KMTR 260500
TAFSTS
TAF
KSTS 260540Z 2606/2706 33003KT P6SM SKC
     FM261700 33005KT P6SM FEW007
     FM262100 33012KT P6SM FEW200
     FM270400 33006KT P6SM SCT150=



000
FTUS46 KMTR 260500
TAFSFO
TAF
KSFO 260540Z 2606/2712 26006KT P6SM FEW015 SCT160
     FM262100 30011KT P6SM FEW200
     FM262200 28018G26KT P6SM SCT200
     FM270600 28012KT P6SM FEW020 SCT200=



000
FTUS46 KMTR 260500
TAFMRY
TAF
KMRY 260540Z 2606/2706 18005KT P6SM OVC014
     FM261600 11004KT P6SM FEW015
     FM262000 30009KT P6SM FEW200
     FM270200 26006KT P6SM BKN020=



000
FTUS46 KMTR 260500
TAFSJC
TAF
KSJC 260540Z 2606/2706 33005KT P6SM SKC
     FM260900 15003KT P6SM FEW150
     FM262100 32011KT P6SM SCT200
     FM270500 31009KT P6SM FEW020 SCT200=



000
FTUS46 KMTR 260500
TAFSNS
TAF
KSNS 260540Z 2606/2706 12003KT P6SM SCT200
     FM262000 28012KT P6SM FEW200
     FM270500 29006KT P6SM SCT200=



000
FTUS46 KMTR 260500
TAFSTS
TAF
KSTS 260540Z 2606/2706 33003KT P6SM SKC
     FM261700 33005KT P6SM FEW007
     FM262100 33012KT P6SM FEW200
     FM270400 33006KT P6SM SCT150=



000
FTUS46 KMTR 260500
TAFOAK
TAF
KOAK 260540Z 2606/2712 26005KT P6SM FEW200
     FM261100 30005KT P6SM FEW018 SCT200
     FM262100 30011G20KT P6SM FEW200
     FM270400 29010KT P6SM FEW020 SCT200=



000
FTUS46 KMTR 260500
TAFSNS
TAF
KSNS 260540Z 2606/2706 12003KT P6SM SCT200
     FM262000 28012KT P6SM FEW200
     FM270500 29006KT P6SM SCT200=



000
FTUS46 KMTR 260500
TAFLVK
TAF
KLVK 260540Z 2606/2706 32003KT P6SM FEW200
     FM262200 33009KT P6SM SCT200
     FM270400 28006KT P6SM SCT150=



000
FTUS46 KMTR 260500
TAFSFO
TAF
KSFO 260540Z 2606/2712 26006KT P6SM FEW015 SCT160
     FM262100 30011KT P6SM FEW200
     FM262200 28018G26KT P6SM SCT200
     FM270600 28012KT P6SM FEW020 SCT200=



000
FTUS46 KMTR 260500
TAFMRY
TAF
KMRY 260540Z 2606/2706 18005KT P6SM OVC014
     FM261600 11004KT P6SM FEW015
     FM262000 30009KT P6SM FEW200
     FM270200 26006KT P6SM BKN020=



000
FTUS46 KMTR 260500
TAFSJC
TAF
KSJC 260540Z 2606/2706 33005KT P6SM SKC
     FM260900 15003KT P6SM FEW150
     FM262100 32011KT P6SM SCT200
     FM270500 31009KT P6SM FEW020 SCT200=



000
FTUS46 KMTR 260300 AAA
TAFSFO
TAF AMD
KSFO 260329Z 2603/2706 27016KT P6SM FEW019 BKN160
     FM260500 29009KT P6SM SCT200
     FM261100 27005KT P6SM FEW015
     FM262100 30011KT P6SM FEW200
     FM262300 28017G26KT P6SM SCT200=



000
FTUS46 KMTR 260300 AAA
TAFSFO
TAF AMD
KSFO 260329Z 2603/2706 27016KT P6SM FEW019 BKN160
     FM260500 29009KT P6SM SCT200
     FM261100 27005KT P6SM FEW015
     FM262100 30011KT P6SM FEW200
     FM262300 28017G26KT P6SM SCT200=



000
FTUS46 KMTR 252300
TAFSFO
TAF
KSFO 252339Z 2600/2706 29016KT P6SM FEW017 BKN180
     FM260400 29007KT P6SM SCT200
     FM261100 27005KT P6SM FEW015
     FM262100 30011KT P6SM FEW200
     FM262300 28017G26KT P6SM SCT200=



000
FTUS46 KMTR 252300
TAFOAK
TAF
KOAK 252339Z 2600/2706 27006KT P6SM BKN200
     FM260400 28005KT P6SM SCT200
     FM261100 30005KT P6SM SCT015
     FM262100 30011KT P6SM FEW200
     FM270300 29006KT P6SM SCT200=



000
FTUS46 KMTR 252300
TAFMRY
TAF
KMRY 252339Z 2600/2624 29007KT P6SM SKC
     FM260600 19005KT P6SM OVC012
     FM261600 11004KT P6SM SCT012
     FM262000 30009KT P6SM FEW200=



000
FTUS46 KMTR 252300
TAFSNS
TAF
KSNS 252339Z 2600/2624 29008KT P6SM SKC
     FM260600 VRB03KT P6SM OVC010
     FM261600 11005KT P6SM SCT010
     FM262000 28011KT P6SM FEW200=



000
FTUS46 KMTR 252300
TAFLVK
TAF
KLVK 252339Z 2600/2624 00000KT P6SM SKC
     FM260400 VRB03KT P6SM FEW200
     FM262200 33007KT P6SM SCT200=



000
FTUS46 KMTR 252300
TAFSTS
TAF
KSTS 252339Z 2600/2624 18006KT P6SM BKN220
     FM260400 VRB03KT P6SM SKC
     FM261200 00000KT 1/2SM FG VV002
     FM261700 35004KT P6SM FEW003
     FM262100 33010KT P6SM FEW200=



000
FTUS46 KMTR 252300
TAFSJC
TAF
KSJC 252339Z 2600/2624 32006KT P6SM FEW090 SCT130 BKN180
     FM260400 VRB03KT P6SM FEW150
     FM260900 15003KT P6SM FEW150
     FM262100 32011KT P6SM SCT200=



000
FTUS46 KMTR 252100 AAA
TAFSFO
TAF AMD
KSFO 252106Z 2521/2624 07004KT P6SM FEW150
     FM252200 28015G20KT P6SM FEW150
     FM260400 29007KT P6SM FEW010
     FM260900 27005KT P6SM SCT015
     FM262100 30011KT P6SM FEW200=



    US Dept of Commerce
    National Oceanic and Atmospheric Administration
    National Weather Service
    1325 East West Highway
    Silver Spring, MD 20910
    Page Author: NWS Internet Services Team
Disclaimer
Information Quality
Credits
Glossary
Privacy Policy
Freedom of Information Act (FOIA)
About Us
Career Opportunities